sensor_id;sensor_type;location;lat;lon;timestamp;temperature;humidity
12568;DHT22;6349;50.904;6.136;2024-01-16T00:00:45;0.80;99.90
12568;DHT22;6349;50.904;6.136;2024-01-16T00:02:45;0.80;99.90
12568;DHT22;6349;50.904;6.136;2024-01-16T00:04:46;0.70;99.90
12568;DHT22;6349;50.904;6.136;2024-01-16T00:06:46;0.70;99.90
12568;DHT22;6349;50.904;6.136;2024-01-16T00:08:47;0.70;99.90
12568;DHT22;6349;50.904;6.136;2024-01-16T00:10:47;0.70;99.90
12568;DHT22;6349;50.904;6.136;2024-01-16T00:12:48;0.70;99.90
12568;DHT22;6349;50.904;6.136;2024-01-16T00:14:48;0.60;99.90
12568;DHT22;6349;50.904;6.136;2024-01-16T00:16:49;0.70;99.90
12568;DHT22;6349;50.904;6.136;2024-01-16T00:18:50;0.60;99.90
12568;DHT22;6349;50.904;6.136;2024-01-16T00:20:50;0.70;99.90
12568;DHT22;6349;50.904;6.136;2024-01-16T00:22:51;0.70;99.90
12568;DHT22;6349;50.904;6.136;2024-01-16T00:24:51;0.70;99.90
12568;DHT22;6349;50.904;6.136;2024-01-16T00:26:52;0.70;99.90
12568;DHT22;6349;50.904;6.136;2024-01-16T00:28:52;0.70;99.90
12568;DHT22;6349;50.904;6.136;2024-01-16T00:30:53;0.70;99.90
12568;DHT22;6349;50.904;6.136;2024-01-16T00:32:53;0.70;99.90
12568;DHT22;6349;50.904;6.136;2024-01-16T00:34:54;0.70;99.90
12568;DHT22;6349;50.904;6.136;2024-01-16T00:36:54;0.70;99.90
12568;DHT22;6349;50.904;6.136;2024-01-16T00:38:55;0.70;99.90
12568;DHT22;6349;50.904;6.136;2024-01-16T00:40:56;0.70;99.90
12568;DHT22;6349;50.904;6.136;2024-01-16T00:42:56;0.80;99.90
12568;DHT22;6349;50.904;6.136;2024-01-16T00:44:57;0.80;99.90
12568;DHT22;6349;50.904;6.136;2024-01-16T00:46:58;0.80;99.90
12568;DHT22;6349;50.904;6.136;2024-01-16T00:49:01;0.80;99.90
12568;DHT22;6349;50.904;6.136;2024-01-16T00:51:02;0.80;99.90
12568;DHT22;6349;50.904;6.136;2024-01-16T00:53:03;0.80;99.90
12568;DHT22;6349;50.904;6.136;2024-01-16T00:55:04;0.80;99.90
12568;DHT22;6349;50.904;6.136;2024-01-16T00:57:05;0.80;99.90
12568;DHT22;6349;50.904;6.136;2024-01-16T00:59:05;0.80;99.90
12568;DHT22;6349;50.904;6.136;2024-01-16T01:01:06;0.80;99.90
12568;DHT22;6349;50.904;6.136;2024-01-16T01:03:06;0.80;99.90
12568;DHT22;6349;50.904;6.136;2024-01-16T01:05:07;0.80;99.90
12568;DHT22;6349;50.904;6.136;2024-01-16T01:07:08;0.80;99.90
12568;DHT22;6349;50.904;6.136;2024-01-16T01:09:09;0.80;99.90
12568;DHT22;6349;50.904;6.136;2024-01-16T01:11:12;0.80;99.90
12568;DHT22;6349;50.904;6.136;2024-01-16T01:13:13;0.80;99.90
12568;DHT22;6349;50.904;6.136;2024-01-16T01:15:13;0.80;99.90
12568;DHT22;6349;50.904;6.136;2024-01-16T01:17:14;0.80;99.90
12568;DHT22;6349;50.904;6.136;2024-01-16T01:19:14;0.80;99.90
12568;DHT22;6349;50.904;6.136;2024-01-16T01:21:15;0.80;99.90
12568;DHT22;6349;50.904;6.136;2024-01-16T01:23:16;0.80;99.90
12568;DHT22;6349;50.904;6.136;2024-01-16T01:25:16;0.70;99.90
12568;DHT22;6349;50.904;6.136;2024-01-16T01:27:17;0.70;99.90
12568;DHT22;6349;50.904;6.136;2024-01-16T01:29:17;0.70;99.90
12568;DHT22;6349;50.904;6.136;2024-01-16T01:31:18;0.70;99.90
12568;DHT22;6349;50.904;6.136;2024-01-16T01:33:18;0.80;99.90
12568;DHT22;6349;50.904;6.136;2024-01-16T01:35:19;0.70;99.90
12568;DHT22;6349;50.904;6.136;2024-01-16T01:37:20;0.70;99.90
12568;DHT22;6349;50.904;6.136;2024-01-16T01:39:20;0.80;99.90
12568;DHT22;6349;50.904;6.136;2024-01-16T01:41:21;0.70;99.90
12568;DHT22;6349;50.904;6.136;2024-01-16T01:43:23;0.70;99.90
12568;DHT22;6349;50.904;6.136;2024-01-16T01:45:24;0.80;99.90
12568;DHT22;6349;50.904;6.136;2024-01-16T01:47:25;0.80;99.90
12568;DHT22;6349;50.904;6.136;2024-01-16T01:49:26;0.80;99.90
12568;DHT22;6349;50.904;6.136;2024-01-16T01:51:27;0.80;99.90
12568;DHT22;6349;50.904;6.136;2024-01-16T01:53:31;0.80;99.90
12568;DHT22;6349;50.904;6.136;2024-01-16T01:55:32;0.80;99.90
12568;DHT22;6349;50.904;6.136;2024-01-16T01:57:33;0.80;99.90
12568;DHT22;6349;50.904;6.136;2024-01-16T01:59:34;0.80;99.90
12568;DHT22;6349;50.904;6.136;2024-01-16T02:01:35;0.80;99.90
12568;DHT22;6349;50.904;6.136;2024-01-16T02:03:40;0.80;99.90
12568;DHT22;6349;50.904;6.136;2024-01-16T02:05:42;0.80;99.90
12568;DHT22;6349;50.904;6.136;2024-01-16T02:07:42;0.80;99.90
12568;DHT22;6349;50.904;6.136;2024-01-16T02:09:43;0.80;99.90
12568;DHT22;6349;50.904;6.136;2024-01-16T02:11:44;0.80;99.90
12568;DHT22;6349;50.904;6.136;2024-01-16T02:13:45;0.80;99.90
12568;DHT22;6349;50.904;6.136;2024-01-16T02:15:46;0.80;99.90
12568;DHT22;6349;50.904;6.136;2024-01-16T02:17:47;0.80;99.90
12568;DHT22;6349;50.904;6.136;2024-01-16T02:19:48;0.80;99.90
12568;DHT22;6349;50.904;6.136;2024-01-16T02:21:49;0.80;99.90
12568;DHT22;6349;50.904;6.136;2024-01-16T02:23:51;0.80;99.90
12568;DHT22;6349;50.904;6.136;2024-01-16T02:25:52;0.80;99.90
12568;DHT22;6349;50.904;6.136;2024-01-16T02:27:53;0.80;99.90
12568;DHT22;6349;50.904;6.136;2024-01-16T02:29:54;0.80;99.90
12568;DHT22;6349;50.904;6.136;2024-01-16T02:31:54;0.80;99.90
12568;DHT22;6349;50.904;6.136;2024-01-16T02:33:55;0.80;99.90
12568;DHT22;6349;50.904;6.136;2024-01-16T02:35:55;0.80;99.90
12568;DHT22;6349;50.904;6.136;2024-01-16T02:37:56;0.80;99.90
12568;DHT22;6349;50.904;6.136;2024-01-16T02:39:56;0.80;99.90
12568;DHT22;6349;50.904;6.136;2024-01-16T02:41:57;0.80;99.90
12568;DHT22;6349;50.904;6.136;2024-01-16T02:43:58;0.80;99.90
12568;DHT22;6349;50.904;6.136;2024-01-16T02:45:58;0.80;99.90
12568;DHT22;6349;50.904;6.136;2024-01-16T02:47:59;0.80;99.90
12568;DHT22;6349;50.904;6.136;2024-01-16T02:50:00;0.80;99.90
12568;DHT22;6349;50.904;6.136;2024-01-16T02:52:01;0.80;99.90
12568;DHT22;6349;50.904;6.136;2024-01-16T02:54:01;0.80;99.90
12568;DHT22;6349;50.904;6.136;2024-01-16T02:56:02;0.80;99.90
12568;DHT22;6349;50.904;6.136;2024-01-16T02:58:02;0.80;99.90
12568;DHT22;6349;50.904;6.136;2024-01-16T03:00:04;0.80;99.90
12568;DHT22;6349;50.904;6.136;2024-01-16T03:02:05;0.80;99.90
12568;DHT22;6349;50.904;6.136;2024-01-16T03:04:05;0.70;99.90
12568;DHT22;6349;50.904;6.136;2024-01-16T03:06:06;0.80;99.90
12568;DHT22;6349;50.904;6.136;2024-01-16T03:08:07;0.80;99.90
12568;DHT22;6349;50.904;6.136;2024-01-16T03:10:07;0.70;99.90
12568;DHT22;6349;50.904;6.136;2024-01-16T03:12:08;0.70;99.90
12568;DHT22;6349;50.904;6.136;2024-01-16T03:14:08;0.70;99.90
12568;DHT22;6349;50.904;6.136;2024-01-16T03:16:12;0.70;99.90
12568;DHT22;6349;50.904;6.136;2024-01-16T03:18:13;0.70;99.90
12568;DHT22;6349;50.904;6.136;2024-01-16T03:20:13;0.70;99.90
12568;DHT22;6349;50.904;6.136;2024-01-16T03:22:14;0.70;99.90
12568;DHT22;6349;50.904;6.136;2024-01-16T03:24:14;0.70;99.90
12568;DHT22;6349;50.904;6.136;2024-01-16T03:26:15;0.70;99.90
12568;DHT22;6349;50.904;6.136;2024-01-16T03:28:15;0.70;99.90
12568;DHT22;6349;50.904;6.136;2024-01-16T03:30:16;0.70;99.90
12568;DHT22;6349;50.904;6.136;2024-01-16T03:32:17;0.70;99.90
12568;DHT22;6349;50.904;6.136;2024-01-16T03:34:18;0.70;99.90
12568;DHT22;6349;50.904;6.136;2024-01-16T03:36:18;0.70;99.90
12568;DHT22;6349;50.904;6.136;2024-01-16T03:38:19;0.70;99.90
12568;DHT22;6349;50.904;6.136;2024-01-16T03:40:19;0.60;99.90
12568;DHT22;6349;50.904;6.136;2024-01-16T03:42:21;0.60;99.90
12568;DHT22;6349;50.904;6.136;2024-01-16T03:44:21;0.60;99.90
12568;DHT22;6349;50.904;6.136;2024-01-16T03:46:23;0.70;99.90
12568;DHT22;6349;50.904;6.136;2024-01-16T03:48:23;0.70;99.90
12568;DHT22;6349;50.904;6.136;2024-01-16T03:50:24;0.70;99.90
12568;DHT22;6349;50.904;6.136;2024-01-16T03:52:24;0.70;99.90
12568;DHT22;6349;50.904;6.136;2024-01-16T03:54:25;0.70;99.90
12568;DHT22;6349;50.904;6.136;2024-01-16T03:56:26;0.70;99.90
12568;DHT22;6349;50.904;6.136;2024-01-16T03:58:26;0.70;99.90
12568;DHT22;6349;50.904;6.136;2024-01-16T04:00:27;0.70;99.90
12568;DHT22;6349;50.904;6.136;2024-01-16T04:02:27;0.70;99.90
12568;DHT22;6349;50.904;6.136;2024-01-16T04:04:28;0.60;99.90
12568;DHT22;6349;50.904;6.136;2024-01-16T04:06:28;0.60;99.90
12568;DHT22;6349;50.904;6.136;2024-01-16T04:08:30;0.60;99.90
12568;DHT22;6349;50.904;6.136;2024-01-16T04:10:30;0.60;99.90
12568;DHT22;6349;50.904;6.136;2024-01-16T04:12:31;0.60;99.90
12568;DHT22;6349;50.904;6.136;2024-01-16T04:14:31;0.60;99.90
12568;DHT22;6349;50.904;6.136;2024-01-16T04:16:32;0.60;99.90
12568;DHT22;6349;50.904;6.136;2024-01-16T04:18:36;0.60;99.90
12568;DHT22;6349;50.904;6.136;2024-01-16T04:20:40;0.60;99.90
12568;DHT22;6349;50.904;6.136;2024-01-16T04:22:41;0.60;99.90
12568;DHT22;6349;50.904;6.136;2024-01-16T04:24:42;0.60;99.90
12568;DHT22;6349;50.904;6.136;2024-01-16T04:26:42;0.60;99.90
12568;DHT22;6349;50.904;6.136;2024-01-16T04:28:43;0.60;99.90
12568;DHT22;6349;50.904;6.136;2024-01-16T04:30:43;0.60;99.90
12568;DHT22;6349;50.904;6.136;2024-01-16T04:32:44;0.50;99.90
12568;DHT22;6349;50.904;6.136;2024-01-16T04:34:45;0.60;99.90
12568;DHT22;6349;50.904;6.136;2024-01-16T04:36:45;0.50;99.90
12568;DHT22;6349;50.904;6.136;2024-01-16T04:38:47;0.50;99.90
12568;DHT22;6349;50.904;6.136;2024-01-16T04:40:47;0.50;99.90
12568;DHT22;6349;50.904;6.136;2024-01-16T04:42:48;0.50;99.90
12568;DHT22;6349;50.904;6.136;2024-01-16T04:44:48;0.50;99.90
12568;DHT22;6349;50.904;6.136;2024-01-16T04:46:49;0.50;99.90
12568;DHT22;6349;50.904;6.136;2024-01-16T04:48:49;0.50;99.90
12568;DHT22;6349;50.904;6.136;2024-01-16T04:50:50;0.50;99.90
12568;DHT22;6349;50.904;6.136;2024-01-16T04:52:51;0.60;99.90
12568;DHT22;6349;50.904;6.136;2024-01-16T04:54:51;0.50;99.90
12568;DHT22;6349;50.904;6.136;2024-01-16T04:56:53;0.50;99.90
12568;DHT22;6349;50.904;6.136;2024-01-16T04:58:53;0.50;99.90
12568;DHT22;6349;50.904;6.136;2024-01-16T05:00:54;0.50;99.90
12568;DHT22;6349;50.904;6.136;2024-01-16T05:02:55;0.50;99.90
12568;DHT22;6349;50.904;6.136;2024-01-16T05:04:55;0.50;99.90
12568;DHT22;6349;50.904;6.136;2024-01-16T05:06:56;0.50;99.90
12568;DHT22;6349;50.904;6.136;2024-01-16T05:08:56;0.50;99.90
12568;DHT22;6349;50.904;6.136;2024-01-16T05:10:58;0.40;99.90
12568;DHT22;6349;50.904;6.136;2024-01-16T05:12:58;0.50;99.90
12568;DHT22;6349;50.904;6.136;2024-01-16T05:14:59;0.50;99.90
12568;DHT22;6349;50.904;6.136;2024-01-16T05:16:59;0.50;99.90
12568;DHT22;6349;50.904;6.136;2024-01-16T05:19:00;0.40;99.90
12568;DHT22;6349;50.904;6.136;2024-01-16T05:21:00;0.40;99.90
12568;DHT22;6349;50.904;6.136;2024-01-16T05:23:02;0.50;99.90
12568;DHT22;6349;50.904;6.136;2024-01-16T05:25:03;0.50;99.90
12568;DHT22;6349;50.904;6.136;2024-01-16T05:27:04;0.50;99.90
12568;DHT22;6349;50.904;6.136;2024-01-16T05:29:08;0.40;99.90
12568;DHT22;6349;50.904;6.136;2024-01-16T05:31:09;0.50;99.90
12568;DHT22;6349;50.904;6.136;2024-01-16T05:33:09;0.50;99.90
12568;DHT22;6349;50.904;6.136;2024-01-16T05:35:10;0.50;99.90
12568;DHT22;6349;50.904;6.136;2024-01-16T05:37:11;0.50;99.90
12568;DHT22;6349;50.904;6.136;2024-01-16T05:39:12;0.40;99.90
12568;DHT22;6349;50.904;6.136;2024-01-16T05:41:13;0.50;99.90
12568;DHT22;6349;50.904;6.136;2024-01-16T05:43:14;0.50;99.90
12568;DHT22;6349;50.904;6.136;2024-01-16T05:45:15;0.50;99.90
12568;DHT22;6349;50.904;6.136;2024-01-16T05:47:15;0.50;99.90
12568;DHT22;6349;50.904;6.136;2024-01-16T05:49:16;0.50;99.90
12568;DHT22;6349;50.904;6.136;2024-01-16T05:51:17;0.50;99.90
12568;DHT22;6349;50.904;6.136;2024-01-16T05:53:17;0.50;99.90
12568;DHT22;6349;50.904;6.136;2024-01-16T05:55:18;0.50;99.90
12568;DHT22;6349;50.904;6.136;2024-01-16T05:57:18;0.40;99.90
12568;DHT22;6349;50.904;6.136;2024-01-16T05:59:19;0.40;99.90
12568;DHT22;6349;50.904;6.136;2024-01-16T06:01:20;0.40;99.90
12568;DHT22;6349;50.904;6.136;2024-01-16T06:03:20;0.40;99.90
12568;DHT22;6349;50.904;6.136;2024-01-16T06:05:21;0.40;99.90
12568;DHT22;6349;50.904;6.136;2024-01-16T06:07:21;0.40;99.90
12568;DHT22;6349;50.904;6.136;2024-01-16T06:09:22;0.40;99.90
12568;DHT22;6349;50.904;6.136;2024-01-16T06:11:30;0.40;99.90
12568;DHT22;6349;50.904;6.136;2024-01-16T06:13:31;0.40;99.90
12568;DHT22;6349;50.904;6.136;2024-01-16T06:15:33;0.40;99.90
12568;DHT22;6349;50.904;6.136;2024-01-16T06:17:33;0.40;99.90
12568;DHT22;6349;50.904;6.136;2024-01-16T06:19:34;0.40;99.90
12568;DHT22;6349;50.904;6.136;2024-01-16T06:21:35;0.40;99.90
12568;DHT22;6349;50.904;6.136;2024-01-16T06:23:35;0.40;99.90
12568;DHT22;6349;50.904;6.136;2024-01-16T06:25:36;0.40;99.90
12568;DHT22;6349;50.904;6.136;2024-01-16T06:27:36;0.40;99.90
12568;DHT22;6349;50.904;6.136;2024-01-16T06:29:37;0.40;99.90
12568;DHT22;6349;50.904;6.136;2024-01-16T06:31:37;0.30;99.90
12568;DHT22;6349;50.904;6.136;2024-01-16T06:33:38;0.30;99.90
12568;DHT22;6349;50.904;6.136;2024-01-16T06:35:39;0.30;99.90
12568;DHT22;6349;50.904;6.136;2024-01-16T06:37:39;0.30;99.90
12568;DHT22;6349;50.904;6.136;2024-01-16T06:39:40;0.30;99.90
12568;DHT22;6349;50.904;6.136;2024-01-16T06:41:41;0.30;99.90
12568;DHT22;6349;50.904;6.136;2024-01-16T06:43:42;0.30;99.90
12568;DHT22;6349;50.904;6.136;2024-01-16T06:45:43;0.30;99.90
12568;DHT22;6349;50.904;6.136;2024-01-16T06:47:43;0.20;99.90
12568;DHT22;6349;50.904;6.136;2024-01-16T06:49:44;0.20;99.90
12568;DHT22;6349;50.904;6.136;2024-01-16T06:51:44;0.10;99.90
12568;DHT22;6349;50.904;6.136;2024-01-16T06:53:45;0.00;99.90
12568;DHT22;6349;50.904;6.136;2024-01-16T06:55:45;0.00;99.90
12568;DHT22;6349;50.904;6.136;2024-01-16T06:57:46;0.00;99.90
12568;DHT22;6349;50.904;6.136;2024-01-16T06:59:47;0.00;99.90
12568;DHT22;6349;50.904;6.136;2024-01-16T07:01:48;-0.10;99.90
12568;DHT22;6349;50.904;6.136;2024-01-16T07:03:49;-0.20;99.90
12568;DHT22;6349;50.904;6.136;2024-01-16T07:05:49;-0.30;99.90
12568;DHT22;6349;50.904;6.136;2024-01-16T07:07:50;-0.30;99.90
12568;DHT22;6349;50.904;6.136;2024-01-16T07:09:50;-0.40;99.90
12568;DHT22;6349;50.904;6.136;2024-01-16T07:11:51;-0.50;99.90
12568;DHT22;6349;50.904;6.136;2024-01-16T07:13:51;-0.60;99.90
12568;DHT22;6349;50.904;6.136;2024-01-16T07:15:52;-0.60;99.90
12568;DHT22;6349;50.904;6.136;2024-01-16T07:17:52;-0.60;99.90
12568;DHT22;6349;50.904;6.136;2024-01-16T07:19:53;-0.60;99.90
12568;DHT22;6349;50.904;6.136;2024-01-16T07:21:53;-0.60;99.90
12568;DHT22;6349;50.904;6.136;2024-01-16T07:23:54;-0.60;99.90
12568;DHT22;6349;50.904;6.136;2024-01-16T07:25:55;-0.50;99.90
12568;DHT22;6349;50.904;6.136;2024-01-16T07:27:56;-0.50;99.90
12568;DHT22;6349;50.904;6.136;2024-01-16T07:29:56;-0.50;99.90
12568;DHT22;6349;50.904;6.136;2024-01-16T07:31:57;-0.40;99.90
12568;DHT22;6349;50.904;6.136;2024-01-16T07:33:58;-0.50;99.90
12568;DHT22;6349;50.904;6.136;2024-01-16T07:35:59;-0.50;99.90
12568;DHT22;6349;50.904;6.136;2024-01-16T07:37:59;-0.40;99.90
12568;DHT22;6349;50.904;6.136;2024-01-16T07:40:00;-0.40;99.90
12568;DHT22;6349;50.904;6.136;2024-01-16T07:42:00;-0.40;99.90
12568;DHT22;6349;50.904;6.136;2024-01-16T07:44:01;-0.40;99.90
12568;DHT22;6349;50.904;6.136;2024-01-16T07:46:02;-0.40;99.90
12568;DHT22;6349;50.904;6.136;2024-01-16T07:48:03;-0.40;99.90
12568;DHT22;6349;50.904;6.136;2024-01-16T07:50:04;-0.40;99.90
12568;DHT22;6349;50.904;6.136;2024-01-16T07:52:05;-0.40;99.90
12568;DHT22;6349;50.904;6.136;2024-01-16T07:54:08;-0.40;99.90
12568;DHT22;6349;50.904;6.136;2024-01-16T07:56:09;-0.40;99.90
12568;DHT22;6349;50.904;6.136;2024-01-16T07:58:13;-0.40;99.90
12568;DHT22;6349;50.904;6.136;2024-01-16T08:00:14;-0.40;99.90
12568;DHT22;6349;50.904;6.136;2024-01-16T08:02:15;-0.40;99.90
12568;DHT22;6349;50.904;6.136;2024-01-16T08:04:17;-0.40;99.90
12568;DHT22;6349;50.904;6.136;2024-01-16T08:06:18;-0.40;99.90
12568;DHT22;6349;50.904;6.136;2024-01-16T08:08:19;-0.40;99.90
12568;DHT22;6349;50.904;6.136;2024-01-16T08:10:19;-0.40;99.90
12568;DHT22;6349;50.904;6.136;2024-01-16T08:12:20;-0.30;99.90
12568;DHT22;6349;50.904;6.136;2024-01-16T08:14:20;-0.30;99.90
12568;DHT22;6349;50.904;6.136;2024-01-16T08:16:21;-0.30;99.90
12568;DHT22;6349;50.904;6.136;2024-01-16T08:18:21;-0.30;99.90
12568;DHT22;6349;50.904;6.136;2024-01-16T08:20:22;-0.40;99.90
12568;DHT22;6349;50.904;6.136;2024-01-16T08:22:23;-0.30;99.90
12568;DHT22;6349;50.904;6.136;2024-01-16T08:24:24;-0.30;99.90
12568;DHT22;6349;50.904;6.136;2024-01-16T08:26:24;-0.30;99.90
12568;DHT22;6349;50.904;6.136;2024-01-16T08:28:25;-0.30;99.90
12568;DHT22;6349;50.904;6.136;2024-01-16T08:30:26;-0.30;99.90
12568;DHT22;6349;50.904;6.136;2024-01-16T08:32:27;-0.40;99.90
12568;DHT22;6349;50.904;6.136;2024-01-16T08:34:27;-0.40;99.90
12568;DHT22;6349;50.904;6.136;2024-01-16T08:36:28;-0.40;99.90
12568;DHT22;6349;50.904;6.136;2024-01-16T08:38:29;-0.30;99.90
12568;DHT22;6349;50.904;6.136;2024-01-16T08:40:29;-0.30;99.90
12568;DHT22;6349;50.904;6.136;2024-01-16T08:42:30;-0.30;99.90
12568;DHT22;6349;50.904;6.136;2024-01-16T08:44:31;-0.20;99.90
12568;DHT22;6349;50.904;6.136;2024-01-16T08:46:31;-0.20;99.90
12568;DHT22;6349;50.904;6.136;2024-01-16T08:48:32;-0.20;99.90
12568;DHT22;6349;50.904;6.136;2024-01-16T08:50:32;-0.10;99.90
12568;DHT22;6349;50.904;6.136;2024-01-16T08:52:33;-0.10;99.90
12568;DHT22;6349;50.904;6.136;2024-01-16T08:54:34;-0.10;99.90
12568;DHT22;6349;50.904;6.136;2024-01-16T08:56:34;-0.10;99.90
12568;DHT22;6349;50.904;6.136;2024-01-16T08:58:35;-0.10;99.90
12568;DHT22;6349;50.904;6.136;2024-01-16T09:00:37;-0.10;99.90
12568;DHT22;6349;50.904;6.136;2024-01-16T09:02:38;-0.10;99.90
12568;DHT22;6349;50.904;6.136;2024-01-16T09:04:39;-0.10;99.90
12568;DHT22;6349;50.904;6.136;2024-01-16T09:06:39;-0.10;99.90
12568;DHT22;6349;50.904;6.136;2024-01-16T09:08:40;-0.10;99.90
12568;DHT22;6349;50.904;6.136;2024-01-16T09:10:40;-0.10;99.90
12568;DHT22;6349;50.904;6.136;2024-01-16T09:12:41;-0.10;99.90
12568;DHT22;6349;50.904;6.136;2024-01-16T09:14:42;-0.10;99.90
12568;DHT22;6349;50.904;6.136;2024-01-16T09:16:42;-0.10;99.90
12568;DHT22;6349;50.904;6.136;2024-01-16T09:18:43;-0.10;99.90
12568;DHT22;6349;50.904;6.136;2024-01-16T09:20:44;-0.10;99.90
12568;DHT22;6349;50.904;6.136;2024-01-16T09:22:45;0.00;99.90
12568;DHT22;6349;50.904;6.136;2024-01-16T09:24:46;0.00;99.90
12568;DHT22;6349;50.904;6.136;2024-01-16T09:26:47;0.00;99.90
12568;DHT22;6349;50.904;6.136;2024-01-16T09:28:47;0.00;99.90
12568;DHT22;6349;50.904;6.136;2024-01-16T09:30:48;0.00;99.90
12568;DHT22;6349;50.904;6.136;2024-01-16T09:32:49;0.10;99.90
12568;DHT22;6349;50.904;6.136;2024-01-16T09:34:49;0.10;99.90
12568;DHT22;6349;50.904;6.136;2024-01-16T09:36:50;0.10;99.90
12568;DHT22;6349;50.904;6.136;2024-01-16T09:38:50;0.10;99.90
12568;DHT22;6349;50.904;6.136;2024-01-16T09:40:51;0.10;99.90
12568;DHT22;6349;50.904;6.136;2024-01-16T09:42:52;0.10;99.90
12568;DHT22;6349;50.904;6.136;2024-01-16T09:44:55;0.10;99.90
12568;DHT22;6349;50.904;6.136;2024-01-16T09:46:57;0.10;99.90
12568;DHT22;6349;50.904;6.136;2024-01-16T09:49:00;0.10;99.90
12568;DHT22;6349;50.904;6.136;2024-01-16T09:51:02;0.10;99.90
12568;DHT22;6349;50.904;6.136;2024-01-16T09:53:03;0.10;99.90
12568;DHT22;6349;50.904;6.136;2024-01-16T09:55:05;0.10;99.90
12568;DHT22;6349;50.904;6.136;2024-01-16T09:57:07;0.00;99.90
12568;DHT22;6349;50.904;6.136;2024-01-16T09:59:09;0.10;99.90
12568;DHT22;6349;50.904;6.136;2024-01-16T10:01:11;0.10;99.90
12568;DHT22;6349;50.904;6.136;2024-01-16T10:03:14;0.10;99.90
12568;DHT22;6349;50.904;6.136;2024-01-16T10:05:14;0.10;99.90
12568;DHT22;6349;50.904;6.136;2024-01-16T10:07:16;0.10;99.90
12568;DHT22;6349;50.904;6.136;2024-01-16T10:09:17;0.20;99.90
12568;DHT22;6349;50.904;6.136;2024-01-16T10:11:17;0.20;99.90
12568;DHT22;6349;50.904;6.136;2024-01-16T10:13:18;0.20;99.90
12568;DHT22;6349;50.904;6.136;2024-01-16T10:15:19;0.20;99.90
12568;DHT22;6349;50.904;6.136;2024-01-16T10:17:21;0.20;99.90
12568;DHT22;6349;50.904;6.136;2024-01-16T10:19:22;0.20;99.90
12568;DHT22;6349;50.904;6.136;2024-01-16T10:21:23;0.10;99.90
12568;DHT22;6349;50.904;6.136;2024-01-16T10:23:27;0.20;99.90
12568;DHT22;6349;50.904;6.136;2024-01-16T10:25:28;0.10;99.90
12568;DHT22;6349;50.904;6.136;2024-01-16T10:27:28;0.10;99.90
12568;DHT22;6349;50.904;6.136;2024-01-16T10:29:31;0.10;99.90
12568;DHT22;6349;50.904;6.136;2024-01-16T10:31:32;0.10;99.90
12568;DHT22;6349;50.904;6.136;2024-01-16T10:33:33;0.10;99.90
12568;DHT22;6349;50.904;6.136;2024-01-16T10:35:33;0.10;99.90
12568;DHT22;6349;50.904;6.136;2024-01-16T10:37:47;0.10;99.90
12568;DHT22;6349;50.904;6.136;2024-01-16T10:39:50;0.20;99.90
12568;DHT22;6349;50.904;6.136;2024-01-16T10:41:57;0.20;99.90
12568;DHT22;6349;50.904;6.136;2024-01-16T10:44:06;0.20;99.90
12568;DHT22;6349;50.904;6.136;2024-01-16T10:48:14;0.20;99.90
12568;DHT22;6349;50.904;6.136;2024-01-16T10:50:16;0.20;99.90
12568;DHT22;6349;50.904;6.136;2024-01-16T10:52:18;0.20;99.90
12568;DHT22;6349;50.904;6.136;2024-01-16T10:54:18;0.20;99.90
12568;DHT22;6349;50.904;6.136;2024-01-16T10:56:19;0.30;99.90
12568;DHT22;6349;50.904;6.136;2024-01-16T10:58:24;0.20;99.90
12568;DHT22;6349;50.904;6.136;2024-01-16T11:00:25;0.20;99.90
12568;DHT22;6349;50.904;6.136;2024-01-16T11:02:33;0.20;99.90
12568;DHT22;6349;50.904;6.136;2024-01-16T11:04:37;0.20;99.90
12568;DHT22;6349;50.904;6.136;2024-01-16T11:06:40;0.30;99.90
12568;DHT22;6349;50.904;6.136;2024-01-16T11:08:41;0.30;99.90
12568;DHT22;6349;50.904;6.136;2024-01-16T11:10:43;0.30;99.90
12568;DHT22;6349;50.904;6.136;2024-01-16T11:12:45;0.30;99.90
12568;DHT22;6349;50.904;6.136;2024-01-16T11:14:49;0.40;99.90
12568;DHT22;6349;50.904;6.136;2024-01-16T11:16:53;0.40;99.90
12568;DHT22;6349;50.904;6.136;2024-01-16T11:18:56;0.40;99.90
12568;DHT22;6349;50.904;6.136;2024-01-16T11:20:57;0.50;99.90
12568;DHT22;6349;50.904;6.136;2024-01-16T11:22:59;0.50;99.90
12568;DHT22;6349;50.904;6.136;2024-01-16T11:25:16;0.60;99.90
12568;DHT22;6349;50.904;6.136;2024-01-16T11:27:23;0.60;99.90
12568;DHT22;6349;50.904;6.136;2024-01-16T11:31:31;0.50;99.90
12568;DHT22;6349;50.904;6.136;2024-01-16T11:35:37;0.60;99.90
12568;DHT22;6349;50.904;6.136;2024-01-16T11:37:41;0.60;99.90
12568;DHT22;6349;50.904;6.136;2024-01-16T11:39:43;0.60;99.90
12568;DHT22;6349;50.904;6.136;2024-01-16T11:41:57;0.60;99.90
12568;DHT22;6349;50.904;6.136;2024-01-16T11:43:58;0.70;99.90
12568;DHT22;6349;50.904;6.136;2024-01-16T11:46:00;0.70;99.90
12568;DHT22;6349;50.904;6.136;2024-01-16T11:48:11;0.70;99.90
12568;DHT22;6349;50.904;6.136;2024-01-16T11:50:13;0.70;99.90
12568;DHT22;6349;50.904;6.136;2024-01-16T11:52:40;0.70;99.90
12568;DHT22;6349;50.904;6.136;2024-01-16T11:54:41;0.80;99.90
12568;DHT22;6349;50.904;6.136;2024-01-16T12:01:27;0.80;99.90
12568;DHT22;6349;50.904;6.136;2024-01-16T12:03:28;0.80;99.90
12568;DHT22;6349;50.904;6.136;2024-01-16T12:05:29;0.90;99.90
12568;DHT22;6349;50.904;6.136;2024-01-16T12:07:29;0.90;99.90
12568;DHT22;6349;50.904;6.136;2024-01-16T12:09:30;0.90;99.90
12568;DHT22;6349;50.904;6.136;2024-01-16T12:11:30;1.00;99.90
12568;DHT22;6349;50.904;6.136;2024-01-16T12:13:31;1.00;99.90
12568;DHT22;6349;50.904;6.136;2024-01-16T12:15:31;1.00;99.90
12568;DHT22;6349;50.904;6.136;2024-01-16T12:17:32;0.90;99.90
12568;DHT22;6349;50.904;6.136;2024-01-16T12:19:33;1.00;99.90
12568;DHT22;6349;50.904;6.136;2024-01-16T12:21:42;1.10;99.90
12568;DHT22;6349;50.904;6.136;2024-01-16T12:23:44;1.00;99.90
12568;DHT22;6349;50.904;6.136;2024-01-16T12:25:44;1.10;99.90
12568;DHT22;6349;50.904;6.136;2024-01-16T12:27:45;1.10;99.90
12568;DHT22;6349;50.904;6.136;2024-01-16T12:29:46;1.10;99.90
12568;DHT22;6349;50.904;6.136;2024-01-16T12:31:47;1.10;99.90
12568;DHT22;6349;50.904;6.136;2024-01-16T12:33:48;1.20;99.90
12568;DHT22;6349;50.904;6.136;2024-01-16T12:35:48;1.20;99.90
12568;DHT22;6349;50.904;6.136;2024-01-16T12:38:10;1.20;99.90
12568;DHT22;6349;50.904;6.136;2024-01-16T12:40:11;1.20;99.90
12568;DHT22;6349;50.904;6.136;2024-01-16T12:42:14;1.20;99.90
12568;DHT22;6349;50.904;6.136;2024-01-16T12:44:15;1.20;99.90
12568;DHT22;6349;50.904;6.136;2024-01-16T12:46:17;1.20;99.90
12568;DHT22;6349;50.904;6.136;2024-01-16T12:48:23;1.20;99.90
12568;DHT22;6349;50.904;6.136;2024-01-16T12:50:28;1.30;99.90
12568;DHT22;6349;50.904;6.136;2024-01-16T12:52:30;1.30;99.90
12568;DHT22;6349;50.904;6.136;2024-01-16T12:54:30;1.20;99.90
12568;DHT22;6349;50.904;6.136;2024-01-16T12:56:31;1.30;99.90
12568;DHT22;6349;50.904;6.136;2024-01-16T12:58:34;1.20;99.90
12568;DHT22;6349;50.904;6.136;2024-01-16T13:00:35;1.30;99.90
12568;DHT22;6349;50.904;6.136;2024-01-16T13:02:35;1.30;99.90
12568;DHT22;6349;50.904;6.136;2024-01-16T13:04:36;1.40;99.90
12568;DHT22;6349;50.904;6.136;2024-01-16T13:06:37;1.40;99.90
12568;DHT22;6349;50.904;6.136;2024-01-16T13:08:38;1.50;99.90
12568;DHT22;6349;50.904;6.136;2024-01-16T13:10:38;1.50;99.90
12568;DHT22;6349;50.904;6.136;2024-01-16T13:12:39;1.50;99.90
12568;DHT22;6349;50.904;6.136;2024-01-16T13:14:39;1.50;99.90
12568;DHT22;6349;50.904;6.136;2024-01-16T13:16:40;1.50;99.90
12568;DHT22;6349;50.904;6.136;2024-01-16T13:18:41;1.50;99.90
12568;DHT22;6349;50.904;6.136;2024-01-16T13:20:41;1.60;99.90